sensor_id;sensor_type;location;lat;lon;timestamp;pressure;altitude;pressure_sealevel;temperature;humidity
9474;BME280;8865;47.636;7.692;2023-02-18T00:01:38;99591.31;;;11.70;100.00
9474;BME280;8865;47.636;7.692;2023-02-18T00:04:04;99586.06;;;11.70;100.00
9474;BME280;8865;47.636;7.692;2023-02-18T00:06:33;99584.38;;;11.69;100.00
9474;BME280;8865;47.636;7.692;2023-02-18T00:09:00;99576.63;;;11.68;100.00
9474;BME280;8865;47.636;7.692;2023-02-18T00:11:31;99583.88;;;11.64;100.00
9474;BME280;8865;47.636;7.692;2023-02-18T00:13:59;99573.25;;;11.53;100.00
9474;BME280;8865;47.636;7.692;2023-02-18T00:16:27;99572.44;;;11.52;100.00
9474;BME280;8865;47.636;7.692;2023-02-18T00:18:55;99571.06;;;11.47;100.00
9474;BME280;8865;47.636;7.692;2023-02-18T00:21:21;99569.81;;;11.52;100.00
9474;BME280;8865;47.636;7.692;2023-02-18T00:23:48;99572.44;;;11.52;100.00
9474;BME280;8865;47.636;7.692;2023-02-18T00:26:15;99578.00;;;11.48;100.00
9474;BME280;8865;47.636;7.692;2023-02-18T00:28:42;99571.34;;;11.55;100.00
9474;BME280;8865;47.636;7.692;2023-02-18T00:31:11;99574.94;;;11.54;100.00
9474;BME280;8865;47.636;7.692;2023-02-18T00:33:38;99569.47;;;11.44;100.00
9474;BME280;8865;47.636;7.692;2023-02-18T00:36:06;99566.97;;;11.42;100.00
9474;BME280;8865;47.636;7.692;2023-02-18T00:38:32;99563.00;;;11.37;100.00
9474;BME280;8865;47.636;7.692;2023-02-18T00:40:59;99560.06;;;11.41;100.00
9474;BME280;8865;47.636;7.692;2023-02-18T00:43:26;99564.66;;;11.38;100.00
9474;BME280;8865;47.636;7.692;2023-02-18T00:45:53;99560.47;;;11.35;100.00
9474;BME280;8865;47.636;7.692;2023-02-18T00:48:19;99559.28;;;11.39;100.00
9474;BME280;8865;47.636;7.692;2023-02-18T00:50:46;99561.00;;;11.40;100.00
9474;BME280;8865;47.636;7.692;2023-02-18T00:53:12;99563.00;;;11.37;100.00
9474;BME280;8865;47.636;7.692;2023-02-18T00:55:43;99553.63;;;11.46;100.00
9474;BME280;8865;47.636;7.692;2023-02-18T00:58:10;99547.97;;;11.52;100.00
9474;BME280;8865;47.636;7.692;2023-02-18T01:00:36;99553.84;;;11.42;100.00
9474;BME280;8865;47.636;7.692;2023-02-18T01:03:03;99547.97;;;11.52;100.00
9474;BME280;8865;47.636;7.692;2023-02-18T01:05:31;99543.69;;;11.51;100.00
9474;BME280;8865;47.636;7.692;2023-02-18T01:07:57;99542.00;;;11.50;100.00
9474;BME280;8865;47.636;7.692;2023-02-18T01:10:22;99540.94;;;11.52;100.00
9474;BME280;8865;47.636;7.692;2023-02-18T01:12:48;99540.28;;;11.49;100.00
9474;BME280;8865;47.636;7.692;2023-02-18T01:15:15;99535.69;;;11.52;100.00
9474;BME280;8865;47.636;7.692;2023-02-18T01:17:41;99534.53;;;11.43;100.00
9474;BME280;8865;47.636;7.692;2023-02-18T01:20:09;99533.06;;;11.52;100.00
9474;BME280;8865;47.636;7.692;2023-02-18T01:22:35;99524.78;;;11.46;100.00
9474;BME280;8865;47.636;7.692;2023-02-18T01:25:01;99533.19;;;11.51;100.00
9474;BME280;8865;47.636;7.692;2023-02-18T01:27:28;99523.31;;;11.54;100.00
9474;BME280;8865;47.636;7.692;2023-02-18T01:29:54;99518.88;;;11.55;100.00
9474;BME280;8865;47.636;7.692;2023-02-18T01:32:20;99523.09;;;11.57;100.00
9474;BME280;8865;47.636;7.692;2023-02-18T01:34:46;99528.22;;;11.59;100.00
9474;BME280;8865;47.636;7.692;2023-02-18T01:37:12;99527.78;;;11.65;100.00
9474;BME280;8865;47.636;7.692;2023-02-18T01:39:38;99524.66;;;11.60;100.00
9474;BME280;8865;47.636;7.692;2023-02-18T01:42:05;99518.25;;;11.64;100.00
9474;BME280;8865;47.636;7.692;2023-02-18T01:44:32;99517.84;;;11.57;100.00
9474;BME280;8865;47.636;7.692;2023-02-18T01:46:58;99516.38;;;11.66;100.00
9474;BME280;8865;47.636;7.692;2023-02-18T01:49:31;99516.47;;;11.65;100.00
9474;BME280;8865;47.636;7.692;2023-02-18T01:52:01;99522.16;;;11.58;100.00
9474;BME280;8865;47.636;7.692;2023-02-18T01:54:29;99517.09;;;11.68;100.00
9474;BME280;8865;47.636;7.692;2023-02-18T01:57:04;99517.84;;;11.70;100.00
9474;BME280;8865;47.636;7.692;2023-02-18T01:59:36;99519.50;;;11.71;100.00
9474;BME280;8865;47.636;7.692;2023-02-18T02:02:03;99508.78;;;11.74;100.00
9474;BME280;8865;47.636;7.692;2023-02-18T02:04:31;99509.00;;;11.71;100.00
9474;BME280;8865;47.636;7.692;2023-02-18T02:06:57;99508.09;;;11.59;100.00
9474;BME280;8865;47.636;7.692;2023-02-18T02:09:25;99509.97;;;11.57;100.00
9474;BME280;8865;47.636;7.692;2023-02-18T02:17:19;99503.47;;;11.63;100.00
9474;BME280;8865;47.636;7.692;2023-02-18T02:20:01;99495.81;;;11.60;100.00
9474;BME280;8865;47.636;7.692;2023-02-18T02:36:52;99487.41;;;11.55;100.00
9474;BME280;8865;47.636;7.692;2023-02-18T02:39:28;99487.00;;;11.48;100.00
9474;BME280;8865;47.636;7.692;2023-02-18T02:42:04;99481.94;;;11.58;100.00
9474;BME280;8865;47.636;7.692;2023-02-18T02:44:58;99480.06;;;11.60;100.00
9474;BME280;8865;47.636;7.692;2023-02-18T02:50:42;99471.59;;;11.80;100.00
9474;BME280;8865;47.636;7.692;2023-02-18T02:53:18;99473.78;;;11.87;100.00
9474;BME280;8865;47.636;7.692;2023-02-18T02:55:47;99468.41;;;11.88;100.00
9474;BME280;8865;47.636;7.692;2023-02-18T02:58:15;99456.25;;;11.87;100.00
9474;BME280;8865;47.636;7.692;2023-02-18T03:09:09;99472.56;;;11.79;100.00
9474;BME280;8865;47.636;7.692;2023-02-18T03:11:46;99470.88;;;11.78;100.00
9474;BME280;8865;47.636;7.692;2023-02-18T03:14:26;99460.38;;;11.78;100.00
9474;BME280;8865;47.636;7.692;2023-02-18T03:17:14;99460.69;;;11.74;100.00
9474;BME280;8865;47.636;7.692;2023-02-18T03:19:46;99452.72;;;11.75;100.00
9474;BME280;8865;47.636;7.692;2023-02-18T03:22:24;99463.31;;;11.74;100.00
9474;BME280;8865;47.636;7.692;2023-02-18T03:24:54;99457.56;;;11.69;100.00
9474;BME280;8865;47.636;7.692;2023-02-18T03:27:27;99451.69;;;11.65;100.00
9474;BME280;8865;47.636;7.692;2023-02-18T03:30:20;99459.34;;;11.68;100.00
9474;BME280;8865;47.636;7.692;2023-02-18T03:32:50;99464.59;;;11.68;100.00
9474;BME280;8865;47.636;7.692;2023-02-18T03:35:17;99466.38;;;11.68;100.00
9474;BME280;8865;47.636;7.692;2023-02-18T03:37:56;99465.34;;;11.70;100.00
9474;BME280;8865;47.636;7.692;2023-02-18T03:40:29;99453.59;;;11.63;100.00
9474;BME280;8865;47.636;7.692;2023-02-18T03:42:57;99457.47;;;11.57;100.00
9474;BME280;8865;47.636;7.692;2023-02-18T03:45:24;99457.38;;;11.59;100.00
9474;BME280;8865;47.636;7.692;2023-02-18T03:47:51;99447.72;;;11.59;100.00
9474;BME280;8865;47.636;7.692;2023-02-18T03:50:17;99442.06;;;11.53;100.00
9474;BME280;8865;47.636;7.692;2023-02-18T03:52:44;99442.69;;;11.56;100.00
9474;BME280;8865;47.636;7.692;2023-02-18T03:55:10;99438.28;;;11.57;100.00
9474;BME280;8865;47.636;7.692;2023-02-18T03:57:36;99443.66;;;11.55;100.00
9474;BME280;8865;47.636;7.692;2023-02-18T04:00:04;99443.53;;;11.57;100.00
9474;BME280;8865;47.636;7.692;2023-02-18T04:02:32;99430.09;;;11.61;100.00
9474;BME280;8865;47.636;7.692;2023-02-18T04:04:58;99431.13;;;11.59;100.00
9474;BME280;8865;47.636;7.692;2023-02-18T04:07:25;99434.50;;;11.61;100.00
9474;BME280;8865;47.636;7.692;2023-02-18T04:09:51;99425.66;;;11.62;100.00
9474;BME280;8865;47.636;7.692;2023-02-18T04:12:17;99427.34;;;11.63;100.00
9474;BME280;8865;47.636;7.692;2023-02-18T04:14:43;99424.72;;;11.63;100.00
9474;BME280;8865;47.636;7.692;2023-02-18T04:17:09;99433.44;;;11.64;100.00
9474;BME280;8865;47.636;7.692;2023-02-18T04:19:35;99436.94;;;11.51;100.00
9474;BME280;8865;47.636;7.692;2023-02-18T04:22:03;99438.19;;;11.46;100.00
9474;BME280;8865;47.636;7.692;2023-02-18T04:24:29;99438.28;;;11.57;100.00
9474;BME280;8865;47.636;7.692;2023-02-18T04:26:55;99443.31;;;11.60;100.00
9474;BME280;8865;47.636;7.692;2023-02-18T04:29:22;99442.19;;;11.51;100.00
9474;BME280;8865;47.636;7.692;2023-02-18T04:31:48;99438.72;;;11.51;100.00
9474;BME280;8865;47.636;7.692;2023-02-18T04:34:13;99441.47;;;11.49;100.00
9474;BME280;8865;47.636;7.692;2023-02-18T04:36:39;99450.03;;;11.51;100.00
9474;BME280;8865;47.636;7.692;2023-02-18T04:39:06;99443.22;;;11.49;100.00
9474;BME280;8865;47.636;7.692;2023-02-18T04:41:31;99441.25;;;11.52;100.00
9474;BME280;8865;47.636;7.692;2023-02-18T04:43:58;99446.91;;;11.46;100.00
9474;BME280;8865;47.636;7.692;2023-02-18T04:46:24;99454.03;;;11.44;100.00
9474;BME280;8865;47.636;7.692;2023-02-18T04:48:50;99456.13;;;11.52;100.00
9474;BME280;8865;47.636;7.692;2023-02-18T04:51:16;99454.13;;;11.55;100.00
9474;BME280;8865;47.636;7.692;2023-02-18T04:53:42;99445.94;;;11.60;100.00
9474;BME280;8865;47.636;7.692;2023-02-18T04:56:08;99455.50;;;11.61;100.00
9474;BME280;8865;47.636;7.692;2023-02-18T04:58:34;99446.97;;;11.57;100.00
9474;BME280;8865;47.636;7.692;2023-02-18T05:01:01;99447.81;;;11.58;100.00
9474;BME280;8865;47.636;7.692;2023-02-18T05:03:28;99452.34;;;11.56;100.00
9474;BME280;8865;47.636;7.692;2023-02-18T05:05:55;99447.09;;;11.56;100.00
9474;BME280;8865;47.636;7.692;2023-02-18T05:08:21;99446.97;;;11.57;100.00
9474;BME280;8865;47.636;7.692;2023-02-18T05:10:47;99445.19;;;11.58;100.00
9474;BME280;8865;47.636;7.692;2023-02-18T05:13:13;99441.75;;;11.57;100.00
9474;BME280;8865;47.636;7.692;2023-02-18T05:15:39;99433.03;;;11.57;100.00
9474;BME280;8865;47.636;7.692;2023-02-18T05:18:06;99433.75;;;11.59;100.00
9474;BME280;8865;47.636;7.692;2023-02-18T05:20:33;99432.94;;;11.58;100.00
9474;BME280;8865;47.636;7.692;2023-02-18T05:22:59;99422.31;;;11.60;100.00
9474;BME280;8865;47.636;7.692;2023-02-18T05:25:25;99424.72;;;11.63;100.00
9474;BME280;8865;47.636;7.692;2023-02-18T05:27:52;99418.44;;;11.53;100.00
9474;BME280;8865;47.636;7.692;2023-02-18T05:30:18;99417.19;;;11.58;100.00
9474;BME280;8865;47.636;7.692;2023-02-18T05:32:44;99429.16;;;11.63;100.00
9474;BME280;8865;47.636;7.692;2023-02-18T05:35:10;99416.97;;;11.61;100.00
9474;BME280;8865;47.636;7.692;2023-02-18T05:37:36;99422.09;;;11.63;100.00
9474;BME280;8865;47.636;7.692;2023-02-18T05:40:03;99421.50;;;11.59;100.00
9474;BME280;8865;47.636;7.692;2023-02-18T05:42:29;99414.34;;;11.61;100.00
9474;BME280;8865;47.636;7.692;2023-02-18T05:44:55;99412.66;;;11.60;100.00
9474;BME280;8865;47.636;7.692;2023-02-18T05:47:21;99422.75;;;11.54;100.00
9474;BME280;8865;47.636;7.692;2023-02-18T05:49:47;99417.50;;;11.54;100.00
9474;BME280;8865;47.636;7.692;2023-02-18T05:52:13;99420.75;;;11.57;100.00
9474;BME280;8865;47.636;7.692;2023-02-18T05:54:39;99415.00;;;11.52;100.00
9474;BME280;8865;47.636;7.692;2023-02-18T05:57:05;99429.78;;;11.53;100.00
9474;BME280;8865;47.636;7.692;2023-02-18T05:59:31;99427.91;;;11.55;100.00
9474;BME280;8865;47.636;7.692;2023-02-18T06:01:57;99423.69;;;11.53;100.00
9474;BME280;8865;47.636;7.692;2023-02-18T06:04:24;99418.34;;;11.54;100.00
9474;BME280;8865;47.636;7.692;2023-02-18T06:06:50;99417.41;;;11.55;100.00
9474;BME280;8865;47.636;7.692;2023-02-18T06:09:17;99416.53;;;11.55;100.00
9474;BME280;8865;47.636;7.692;2023-02-18T06:11:43;99412.25;;;11.54;100.00
9474;BME280;8865;47.636;7.692;2023-02-18T06:14:09;99420.34;;;11.51;100.00
9474;BME280;8865;47.636;7.692;2023-02-18T06:16:35;99414.38;;;11.49;100.00
9474;BME280;8865;47.636;7.692;2023-02-18T06:19:01;99427.81;;;11.44;100.00
9474;BME280;8865;47.636;7.692;2023-02-18T06:21:28;99420.25;;;11.39;100.00
9474;BME280;8865;47.636;7.692;2023-02-18T06:23:54;99418.06;;;11.33;100.00
9474;BME280;8865;47.636;7.692;2023-02-18T06:26:20;99429.63;;;11.31;100.00
9474;BME280;8865;47.636;7.692;2023-02-18T06:28:46;99431.41;;;11.30;100.00
9474;BME280;8865;47.636;7.692;2023-02-18T06:31:12;99430.69;;;11.28;100.00
9474;BME280;8865;47.636;7.692;2023-02-18T06:33:38;99424.72;;;11.26;100.00
9474;BME280;8865;47.636;7.692;2023-02-18T06:36:06;99430.69;;;11.28;100.00
9474;BME280;8865;47.636;7.692;2023-02-18T06:38:34;99431.50;;;11.29;100.00
9474;BME280;8865;47.636;7.692;2023-02-18T06:41:01;99429.00;;;11.27;100.00
9474;BME280;8865;47.636;7.692;2023-02-18T06:43:27;99425.66;;;11.25;100.00
9474;BME280;8865;47.636;7.692;2023-02-18T06:45:53;99430.19;;;11.23;100.00
9474;BME280;8865;47.636;7.692;2023-02-18T06:48:20;99426.59;;;11.24;100.00
9474;BME280;8865;47.636;7.692;2023-02-18T06:50:47;99426.38;;;11.27;100.00
9474;BME280;8865;47.636;7.692;2023-02-18T06:53:13;99421.25;;;11.25;100.00
9474;BME280;8865;47.636;7.692;2023-02-18T06:55:42;99420.09;;;11.30;100.00
9474;BME280;8865;47.636;7.692;2023-02-18T06:58:13;99420.91;;;11.30;100.00
9474;BME280;8865;47.636;7.692;2023-02-18T07:00:39;99419.16;;;11.31;100.00
9474;BME280;8865;47.636;7.692;2023-02-18T07:03:06;99423.34;;;11.20;100.00
9474;BME280;8865;47.636;7.692;2023-02-18T07:05:33;99422.09;;;11.26;100.00
9474;BME280;8865;47.636;7.692;2023-02-18T07:07:59;99419.03;;;11.32;100.00
9474;BME280;8865;47.636;7.692;2023-02-18T07:10:26;99425.72;;;11.36;100.00
9474;BME280;8865;47.636;7.692;2023-02-18T07:12:52;99421.94;;;11.40;100.00
9474;BME280;8865;47.636;7.692;2023-02-18T07:15:18;99418.28;;;11.43;100.00
9474;BME280;8865;47.636;7.692;2023-02-18T07:17:50;99420.47;;;11.49;100.00
9474;BME280;8865;47.636;7.692;2023-02-18T07:20:17;99416.53;;;11.55;100.00
9474;BME280;8865;47.636;7.692;2023-02-18T07:22:44;99416.66;;;11.53;100.00
9474;BME280;8865;47.636;7.692;2023-02-18T07:25:10;99415.22;;;11.49;100.00
9474;BME280;8865;47.636;7.692;2023-02-18T07:27:37;99411.31;;;11.55;100.00
9474;BME280;8865;47.636;7.692;2023-02-18T07:30:03;99415.69;;;11.67;100.00
9474;BME280;8865;47.636;7.692;2023-02-18T07:32:30;99408.38;;;11.59;100.00
9474;BME280;8865;47.636;7.692;2023-02-18T07:34:56;99404.31;;;11.79;100.00
9474;BME280;8865;47.636;7.692;2023-02-18T07:37:22;99409.44;;;11.81;100.00
9474;BME280;8865;47.636;7.692;2023-02-18T07:40:05;99403.53;;;11.90;100.00
9474;BME280;8865;47.636;7.692;2023-02-18T07:42:38;99406.59;;;12.08;100.00
9474;BME280;8865;47.636;7.692;2023-02-18T07:45:04;99410.94;;;12.21;100.00
9474;BME280;8865;47.636;7.692;2023-02-18T07:47:32;99409.78;;;12.36;100.00
9474;BME280;8865;47.636;7.692;2023-02-18T07:49:58;99414.56;;;12.42;100.00
9474;BME280;8865;47.636;7.692;2023-02-18T07:52:24;99414.47;;;12.44;100.00
9474;BME280;8865;47.636;7.692;2023-02-18T07:54:51;99418.19;;;12.41;100.00
9474;BME280;8865;47.636;7.692;2023-02-18T07:57:39;99413.75;;;12.42;100.00
9474;BME280;8865;47.636;7.692;2023-02-18T08:00:23;99408.13;;;12.35;100.00
9474;BME280;8865;47.636;7.692;2023-02-18T08:02:50;99405.63;;;12.33;100.00
9474;BME280;8865;47.636;7.692;2023-02-18T08:05:16;99414.34;;;12.45;100.00
9474;BME280;8865;47.636;7.692;2023-02-18T08:07:42;99410.25;;;12.30;100.00
9474;BME280;8865;47.636;7.692;2023-02-18T08:10:08;99406.44;;;12.34;100.00
9474;BME280;8865;47.636;7.692;2023-02-18T08:12:34;99415.56;;;12.53;100.00
9474;BME280;8865;47.636;7.692;2023-02-18T08:15:01;99404.81;;;12.56;100.00
9474;BME280;8865;47.636;7.692;2023-02-18T08:17:27;99410.53;;;12.49;100.00
9474;BME280;8865;47.636;7.692;2023-02-18T08:19:53;99408.72;;;12.39;100.00
9474;BME280;8865;47.636;7.692;2023-02-18T08:22:19;99405.63;;;12.45;100.00
9474;BME280;8865;47.636;7.692;2023-02-18T08:24:45;99406.47;;;12.45;100.00
9474;BME280;8865;47.636;7.692;2023-02-18T08:27:11;99404.25;;;12.63;100.00
9474;BME280;8865;47.636;7.692;2023-02-18T08:29:39;99404.41;;;12.73;100.00
9474;BME280;8865;47.636;7.692;2023-02-18T08:32:05;99403.31;;;12.87;100.00
9474;BME280;8865;47.636;7.692;2023-02-18T08:34:31;99404.16;;;12.88;100.00
9474;BME280;8865;47.636;7.692;2023-02-18T08:36:57;99398.88;;;12.99;100.00
9474;BME280;8865;47.636;7.692;2023-02-18T08:39:23;99396.84;;;12.91;100.00
9474;BME280;8865;47.636;7.692;2023-02-18T08:41:49;99390.53;;;13.16;100.00
9474;BME280;8865;47.636;7.692;2023-02-18T08:44:15;99389.09;;;13.12;100.00
9474;BME280;8865;47.636;7.692;2023-02-18T08:46:41;99393.53;;;13.12;100.00
9474;BME280;8865;47.636;7.692;2023-02-18T08:49:07;99389.19;;;13.22;100.00
9474;BME280;8865;47.636;7.692;2023-02-18T08:51:33;99388.38;;;13.21;100.00
9474;BME280;8865;47.636;7.692;2023-02-18T08:54:00;99386.47;;;13.12;100.00
9474;BME280;8865;47.636;7.692;2023-02-18T08:56:26;99383.13;;;13.10;100.00
9474;BME280;8865;47.636;7.692;2023-02-18T08:58:52;99380.22;;;13.25;100.00
9474;BME280;8865;47.636;7.692;2023-02-18T09:01:18;99386.47;;;13.12;100.00
9474;BME280;8865;47.636;7.692;2023-02-18T09:03:45;99380.00;;;13.05;100.00
9474;BME280;8865;47.636;7.692;2023-02-18T09:06:11;99386.94;;;13.17;100.00
9474;BME280;8865;47.636;7.692;2023-02-18T09:08:37;99381.53;;;13.19;100.00
9474;BME280;8865;47.636;7.692;2023-02-18T09:11:04;99381.44;;;13.32;100.00
9474;BME280;8865;47.636;7.692;2023-02-18T09:13:31;99383.97;;;13.33;100.00
9474;BME280;8865;47.636;7.692;2023-02-18T09:16:11;99391.22;;;13.30;100.00
9474;BME280;8865;47.636;7.692;2023-02-18T09:18:37;99388.25;;;13.34;100.00
9474;BME280;8865;47.636;7.692;2023-02-18T09:21:06;99385.97;;;13.41;100.00
9474;BME280;8865;47.636;7.692;2023-02-18T09:23:32;99397.44;;;13.51;100.00
9474;BME280;8865;47.636;7.692;2023-02-18T09:25:59;99392.91;;;13.42;100.00
9474;BME280;8865;47.636;7.692;2023-02-18T09:28:28;99404.25;;;13.54;100.00
9474;BME280;8865;47.636;7.692;2023-02-18T09:30:54;99405.09;;;13.43;100.00
9474;BME280;8865;47.636;7.692;2023-02-18T09:33:20;99406.06;;;13.42;100.00
9474;BME280;8865;47.636;7.692;2023-02-18T09:35:47;99406.78;;;13.44;100.00
9474;BME280;8865;47.636;7.692;2023-02-18T09:38:16;99406.75;;;13.33;100.00
9474;BME280;8865;47.636;7.692;2023-02-18T09:40:44;99406.78;;;13.44;100.00
9474;BME280;8865;47.636;7.692;2023-02-18T09:43:26;99399.38;;;13.38;100.00
9474;BME280;8865;47.636;7.692;2023-02-18T09:45:54;99395.53;;;13.42;100.00
9474;BME280;8865;47.636;7.692;2023-02-18T09:48:27;99404.13;;;13.55;100.00
9474;BME280;8865;47.636;7.692;2023-02-18T09:50:55;99399.75;;;13.77;100.00
9474;BME280;8865;47.636;7.692;2023-02-18T09:53:22;99396.34;;;13.54;100.00
9474;BME280;8865;47.636;7.692;2023-02-18T09:55:51;99397.91;;;13.56;100.00
9474;BME280;8865;47.636;7.692;2023-02-18T09:58:32;99395.63;;;13.63;100.00
9474;BME280;8865;47.636;7.692;2023-02-18T10:01:06;99399.19;;;13.73;100.00
9474;BME280;8865;47.636;7.692;2023-02-18T10:03:35;99395.47;;;13.76;100.00
9474;BME280;8865;47.636;7.692;2023-02-18T10:06:11;99400.88;;;13.63;100.00
9474;BME280;8865;47.636;7.692;2023-02-18T10:08:46;99396.69;;;13.72;100.00
9474;BME280;8865;47.636;7.692;2023-02-18T10:11:22;99401.50;;;13.55;100.00
9474;BME280;8865;47.636;7.692;2023-02-18T10:13:50;99394.66;;;13.53;100.00
9474;BME280;8865;47.636;7.692;2023-02-18T10:16:20;99402.69;;;13.51;100.00
9474;BME280;8865;47.636;7.692;2023-02-18T10:18:48;99391.78;;;13.67;100.00
9474;BME280;8865;47.636;7.692;2023-02-18T10:21:19;99395.72;;;13.73;100.00
9474;BME280;8865;47.636;7.692;2023-02-18T10:23:52;99397.13;;;13.77;100.00
9474;BME280;8865;47.636;7.692;2023-02-18T10:26:20;99397.19;;;13.66;100.00
9474;BME280;8865;47.636;7.692;2023-02-18T10:28:46;99393.47;;;13.57;100.00
9474;BME280;8865;47.636;7.692;2023-02-18T10:31:32;99401.16;;;13.49;100.00
9474;BME280;8865;47.636;7.692;2023-02-18T10:34:15;99397.22;;;13.43;100.00
9474;BME280;8865;47.636;7.692;2023-02-18T10:36:48;99403.19;;;13.45;100.00
9474;BME280;8865;47.636;7.692;2023-02-18T10:42:09;99400.47;;;13.35;100.00
9474;BME280;8865;47.636;7.692;2023-02-18T10:44:52;99404.66;;;13.38;100.00
9474;BME280;8865;47.636;7.692;2023-02-18T10:47:41;99407.25;;;13.27;100.00
9474;BME280;8865;47.636;7.692;2023-02-18T10:50:23;99404.50;;;13.28;100.00
9474;BME280;8865;47.636;7.692;2023-02-18T10:52:51;99394.59;;;13.32;100.00
9474;BME280;8865;47.636;7.692;2023-02-18T10:55:37;99399.97;;;13.30;100.00
9474;BME280;8865;47.636;7.692;2023-02-18T10:58:03;99385.50;;;13.47;100.00
9474;BME280;8865;47.636;7.692;2023-02-18T11:00:48;99390.03;;;13.45;100.00
9474;BME280;8865;47.636;7.692;2023-02-18T11:03:17;99383.34;;;13.41;100.00
9474;BME280;8865;47.636;7.692;2023-02-18T11:05:45;99383.47;;;13.39;100.00
9474;BME280;8865;47.636;7.692;2023-02-18T11:08:16;99377.84;;;13.44;100.00
9474;BME280;8865;47.636;7.692;2023-02-18T11:10:44;99372.28;;;13.58;100.00
9474;BME280;8865;47.636;7.692;2023-02-18T11:13:17;99361.81;;;13.47;100.00
9474;BME280;8865;47.636;7.692;2023-02-18T11:16:01;99363.25;;;13.40;100.00
9474;BME280;8865;47.636;7.692;2023-02-18T11:18:44;99357.31;;;13.59;100.00
9474;BME280;8865;47.636;7.692;2023-02-18T11:23:50;99344.44;;;13.88;100.00
9474;BME280;8865;47.636;7.692;2023-02-18T11:26:24;99342.13;;;13.95;100.00
9474;BME280;8865;47.636;7.692;2023-02-18T11:29:00;99345.84;;;14.14;100.00
9474;BME280;8865;47.636;7.692;2023-02-18T11:31:43;99336.94;;;14.26;100.00
9474;BME280;8865;47.636;7.692;2023-02-18T11:34:15;99319.16;;;14.49;100.00
9474;BME280;8865;47.636;7.692;2023-02-18T11:36:41;99330.38;;;14.62;100.00
9474;BME280;8865;47.636;7.692;2023-02-18T11:39:28;99314.28;;;14.66;100.00
9474;BME280;8865;47.636;7.692;2023-02-18T11:41:58;99311.66;;;14.75;100.00
9474;BME280;8865;47.636;7.692;2023-02-18T11:44:35;99317.88;;;14.64;100.00
9474;BME280;8865;47.636;7.692;2023-02-18T11:49:33;99321.09;;;14.47;100.00
9474;BME280;8865;47.636;7.692;2023-02-18T11:54:30;99294.97;;;15.06;100.00
9474;BME280;8865;47.636;7.692;2023-02-18T11:57:05;99299.84;;;15.20;100.00
9474;BME280;8865;47.636;7.692;2023-02-18T11:59:34;99304.63;;;14.86;100.00
9474;BME280;8865;47.636;7.692;2023-02-18T12:04:41;99297.69;;;14.85;100.00
9474;BME280;8865;47.636;7.692;2023-02-18T12:07:19;99290.00;;;14.41;100.00
9474;BME280;8865;47.636;7.692;2023-02-18T12:09:48;99289.50;;;14.26;100.00
9474;BME280;8865;47.636;7.692;2023-02-18T12:12:25;99283.41;;;14.25;100.00
9474;BME280;8865;47.636;7.692;2023-02-18T12:14:54;99284.47;;;14.23;100.00
9474;BME280;8865;47.636;7.692;2023-02-18T12:17:38;99283.31;;;14.16;100.00
9474;BME280;8865;47.636;7.692;2023-02-18T12:23:11;99268.81;;;14.21;100.00
9474;BME280;8865;47.636;7.692;2023-02-18T12:26:02;99266.81;;;14.35;100.00
9474;BME280;8865;47.636;7.692;2023-02-18T12:29:02;99273.50;;;14.18;100.00
9474;BME280;8865;47.636;7.692;2023-02-18T12:34:18;99261.44;;;14.46;100.00
9474;BME280;8865;47.636;7.692;2023-02-18T12:43:01;99257.84;;;14.78;100.00
9474;BME280;8865;47.636;7.692;2023-02-18T12:45:53;99255.94;;;14.99;100.00
9474;BME280;8865;47.636;7.692;2023-02-18T13:00:10;99265.97;;;15.45;100.00
9474;BME280;8865;47.636;7.692;2023-02-18T13:05:31;99248.03;;;15.39;100.00
9474;BME280;8865;47.636;7.692;2023-02-18T13:08:29;99248.03;;;14.99;100.00
9474;BME280;8865;47.636;7.692;2023-02-18T13:13:50;99233.78;;;14.71;100.00
9474;BME280;8865;47.636;7.692;2023-02-18T13:16:20;99241.09;;;15.67;100.00
9474;BME280;8865;47.636;7.692;2023-02-18T13:18:57;99224.03;;;15.81;100.00
9474;BME280;8865;47.636;7.692;2023-02-18T13:21:25;99218.75;;;15.51;100.00
9474;BME280;8865;47.636;7.692;2023-02-18T13:23:55;99224.44;;;15.27;100.00
9474;BME280;8865;47.636;7.692;2023-02-18T13:26:23;99221.81;;;15.27;100.00
9474;BME280;8865;47.636;7.692;2023-02-18T13:35:03;99213.16;;;15.64;100.00
9474;BME280;8865;47.636;7.692;2023-02-18T13:37:17;99202.31;;;16.34;100.00
9474;BME280;8865;47.636;7.692;2023-02-18T13:39:54;99189.53;;;16.30;100.00
9474;BME280;8865;47.636;7.692;2023-02-18T13:52:39;99187.47;;;15.37;100.00
9474;BME280;8865;47.636;7.692;2023-02-18T13:55:19;99178.59;;;15.28;100.00
9474;BME280;8865;47.636;7.692;2023-02-18T13:57:48;99180.97;;;15.31;100.00
9474;BME280;8865;47.636;7.692;2023-02-18T14:00:22;99172.16;;;15.60;100.00
9474;BME280;8865;47.636;7.692;2023-02-18T14:03:00;99178.72;;;15.46;100.00
9474;BME280;8865;47.636;7.692;2023-02-18T14:05:40;99174.41;;;15.35;100.00
9474;BME280;8865;47.636;7.692;2023-02-18T14:08:34;99170.53;;;15.40;100.00
9474;BME280;8865;47.636;7.692;2023-02-18T14:13:54;99171.22;;;15.32;100.00
9474;BME280;8865;47.636;7.692;2023-02-18T14:19:38;99172.19;;;15.31;100.00
9474;BME280;8865;47.636;7.692;2023-02-18T14:22:25;99159.28;;;15.38;100.00
9474;BME280;8865;47.636;7.692;2023-02-18T14:27:34;99155.00;;;15.27;100.00
9474;BME280;8865;47.636;7.692;2023-02-18T14:30:18;99151.09;;;15.21;100.00
9474;BME280;8865;47.636;7.692;2023-02-18T14:32:45;99138.59;;;15.23;100.00
9474;BME280;8865;47.636;7.692;2023-02-18T14:46:38;99137.25;;;15.66;100.00
9474;BME280;8865;47.636;7.692;2023-02-18T14:49:31;99132.41;;;15.62;100.00
9474;BME280;8865;47.636;7.692;2023-02-18T14:52:02;99138.84;;;15.40;100.00
9474;BME280;8865;47.636;7.692;2023-02-18T14:54:30;99139.84;;;15.19;100.00
9474;BME280;8865;47.636;7.692;2023-02-18T14:57:03;99133.84;;;15.36;100.00
9474;BME280;8865;47.636;7.692;2023-02-18T14:59:35;99125.25;;;15.15;100.00
9474;BME280;8865;47.636;7.692;2023-02-18T15:02:02;99128.91;;;14.94;100.00
9474;BME280;8865;47.636;7.692;2023-02-18T15:04:28;99134.84;;;14.96;100.00
9474;BME280;8865;47.636;7.692;2023-02-18T15:07:13;99133.72;;;14.89;100.00
9474;BME280;8865;47.636;7.692;2023-02-18T15:09:52;99130.97;;;14.91;100.00
9474;BME280;8865;47.636;7.692;2023-02-18T15:12:21;99138.88;;;14.81;100.00
9474;BME280;8865;47.636;7.692;2023-02-18T15:14:50;99130.78;;;14.63;100.00